sensor_id;sensor_type;location;lat;lon;timestamp;P1;durP1;ratioP1;P2;durP2;ratioP2
61570;SDS011;47463;49.884;10.010;2022-08-18T00:00:00;8.8;;;5.8;;
61570;SDS011;47463;49.884;10.010;2022-08-18T00:05:00;8.8;;;5.8;;
61570;SDS011;47463;49.884;10.010;2022-08-18T00:10:00;7.9;;;6;;
61570;SDS011;47463;49.884;10.010;2022-08-18T00:15:00;7.9;;;6;;
61570;SDS011;47463;49.884;10.010;2022-08-18T00:20:00;6.8;;;5.7;;
61570;SDS011;47463;49.884;10.010;2022-08-18T00:25:00;6.8;;;5.7;;
61570;SDS011;47463;49.884;10.010;2022-08-18T00:30:00;8.1;;;6.1;;
61570;SDS011;47463;49.884;10.010;2022-08-18T00:35:03;8.1;;;6.1;;
61570;SDS011;47463;49.884;10.010;2022-08-18T00:40:00;8.4;;;6.4;;
61570;SDS011;47463;49.884;10.010;2022-08-18T00:45:00;8.4;;;6.4;;
61570;SDS011;47463;49.884;10.010;2022-08-18T00:50:00;9.9;;;7.1;;
61570;SDS011;47463;49.884;10.010;2022-08-18T00:55:00;9.9;;;7.1;;
61570;SDS011;47463;49.884;10.010;2022-08-18T01:00:00;11.9;;;7.7;;
61570;SDS011;47463;49.884;10.010;2022-08-18T01:05:00;11.9;;;7.7;;
61570;SDS011;47463;49.884;10.010;2022-08-18T01:10:00;10.2;;;7.1;;
61570;SDS011;47463;49.884;10.010;2022-08-18T01:15:00;10.2;;;7.1;;
61570;SDS011;47463;49.884;10.010;2022-08-18T01:20:00;9.8;;;7.1;;
61570;SDS011;47463;49.884;10.010;2022-08-18T01:25:00;9.8;;;7.1;;
61570;SDS011;47463;49.884;10.010;2022-08-18T01:30:02;9.1;;;7.1;;
61570;SDS011;47463;49.884;10.010;2022-08-18T01:35:00;9.1;;;7.1;;
61570;SDS011;47463;49.884;10.010;2022-08-18T01:40:00;14.9;;;7.6;;
61570;SDS011;47463;49.884;10.010;2022-08-18T01:45:00;14.9;;;7.6;;
61570;SDS011;47463;49.884;10.010;2022-08-18T01:50:00;9.1;;;7.6;;
61570;SDS011;47463;49.884;10.010;2022-08-18T01:55:00;9.1;;;7.6;;
61570;SDS011;47463;49.884;10.010;2022-08-18T02:00:00;9.2;;;8;;
61570;SDS011;47463;49.884;10.010;2022-08-18T02:05:00;9.2;;;8;;
61570;SDS011;47463;49.884;10.010;2022-08-18T02:10:00;9.8;;;8.1;;
61570;SDS011;47463;49.884;10.010;2022-08-18T02:15:00;9.8;;;8.1;;
61570;SDS011;47463;49.884;10.010;2022-08-18T02:20:00;11.1;;;8.6;;
61570;SDS011;47463;49.884;10.010;2022-08-18T02:25:00;11.1;;;8.6;;
61570;SDS011;47463;49.884;10.010;2022-08-18T02:30:00;11.6;;;8.4;;
61570;SDS011;47463;49.884;10.010;2022-08-18T02:35:00;11.6;;;8.4;;
61570;SDS011;47463;49.884;10.010;2022-08-18T02:40:00;12.3;;;8.9;;
61570;SDS011;47463;49.884;10.010;2022-08-18T02:45:00;12.3;;;8.9;;
61570;SDS011;47463;49.884;10.010;2022-08-18T02:50:00;11.5;;;8.7;;
61570;SDS011;47463;49.884;10.010;2022-08-18T02:55:00;11.5;;;8.7;;
61570;SDS011;47463;49.884;10.010;2022-08-18T03:00:00;11.7;;;8.7;;
61570;SDS011;47463;49.884;10.010;2022-08-18T03:05:00;11.7;;;8.7;;
61570;SDS011;47463;49.884;10.010;2022-08-18T03:10:00;15.4;;;8.7;;
61570;SDS011;47463;49.884;10.010;2022-08-18T03:15:00;15.4;;;8.7;;
61570;SDS011;47463;49.884;10.010;2022-08-18T03:20:00;10.9;;;8.1;;
61570;SDS011;47463;49.884;10.010;2022-08-18T03:25:00;10.9;;;8.1;;
61570;SDS011;47463;49.884;10.010;2022-08-18T03:30:00;10.2;;;8.1;;
61570;SDS011;47463;49.884;10.010;2022-08-18T03:35:00;10.2;;;8.1;;
61570;SDS011;47463;49.884;10.010;2022-08-18T03:40:00;9;;;8;;
61570;SDS011;47463;49.884;10.010;2022-08-18T03:45:00;9;;;8;;
61570;SDS011;47463;49.884;10.010;2022-08-18T03:50:00;10.1;;;7.7;;
61570;SDS011;47463;49.884;10.010;2022-08-18T03:55:00;10.1;;;7.7;;
61570;SDS011;47463;49.884;10.010;2022-08-18T04:00:00;10.8;;;9;;
61570;SDS011;47463;49.884;10.010;2022-08-18T04:05:00;10.8;;;9;;
61570;SDS011;47463;49.884;10.010;2022-08-18T04:10:00;10.9;;;8;;
61570;SDS011;47463;49.884;10.010;2022-08-18T04:15:00;10.9;;;8;;
61570;SDS011;47463;49.884;10.010;2022-08-18T04:20:00;9.7;;;8.1;;
61570;SDS011;47463;49.884;10.010;2022-08-18T04:25:00;9.7;;;8.1;;
61570;SDS011;47463;49.884;10.010;2022-08-18T04:30:00;9.8;;;8.2;;
61570;SDS011;47463;49.884;10.010;2022-08-18T04:35:00;9.8;;;8.2;;
61570;SDS011;47463;49.884;10.010;2022-08-18T04:40:00;11;;;8.6;;
61570;SDS011;47463;49.884;10.010;2022-08-18T04:45:00;11;;;8.6;;
61570;SDS011;47463;49.884;10.010;2022-08-18T04:50:00;13.6;;;8.9;;
61570;SDS011;47463;49.884;10.010;2022-08-18T04:55:00;13.6;;;8.9;;
61570;SDS011;47463;49.884;10.010;2022-08-18T05:00:00;12.5;;;9.4;;
61570;SDS011;47463;49.884;10.010;2022-08-18T05:05:00;12.5;;;9.4;;
61570;SDS011;47463;49.884;10.010;2022-08-18T05:10:00;12.2;;;10;;
61570;SDS011;47463;49.884;10.010;2022-08-18T05:15:00;12.2;;;10;;
61570;SDS011;47463;49.884;10.010;2022-08-18T05:20:00;10.8;;;9.3;;
61570;SDS011;47463;49.884;10.010;2022-08-18T05:25:00;10.8;;;9.3;;
61570;SDS011;47463;49.884;10.010;2022-08-18T05:30:00;12.3;;;10.1;;
61570;SDS011;47463;49.884;10.010;2022-08-18T05:35:01;12.3;;;10.1;;
61570;SDS011;47463;49.884;10.010;2022-08-18T05:40:01;12.3;;;10;;
61570;SDS011;47463;49.884;10.010;2022-08-18T05:45:00;12.3;;;10;;
61570;SDS011;47463;49.884;10.010;2022-08-18T05:50:01;14;;;10.6;;
61570;SDS011;47463;49.884;10.010;2022-08-18T05:55:00;14;;;10.6;;
61570;SDS011;47463;49.884;10.010;2022-08-18T06:00:00;11.9;;;10.4;;
61570;SDS011;47463;49.884;10.010;2022-08-18T06:05:00;11.9;;;10.4;;
61570;SDS011;47463;49.884;10.010;2022-08-18T06:10:00;13.7;;;11.1;;
61570;SDS011;47463;49.884;10.010;2022-08-18T06:15:01;13.7;;;11.1;;
61570;SDS011;47463;49.884;10.010;2022-08-18T06:20:00;11.8;;;10.5;;
61570;SDS011;47463;49.884;10.010;2022-08-18T06:25:01;11.8;;;10.5;;
61570;SDS011;47463;49.884;10.010;2022-08-18T06:30:01;14.2;;;11.3;;
61570;SDS011;47463;49.884;10.010;2022-08-18T06:35:02;14.2;;;11.3;;
61570;SDS011;47463;49.884;10.010;2022-08-18T06:40:00;16.3;;;12.1;;
61570;SDS011;47463;49.884;10.010;2022-08-18T06:45:00;16.3;;;12.1;;
61570;SDS011;47463;49.884;10.010;2022-08-18T06:50:02;15;;;12.4;;
61570;SDS011;47463;49.884;10.010;2022-08-18T06:55:00;15;;;12.4;;
61570;SDS011;47463;49.884;10.010;2022-08-18T07:00:03;14.5;;;12.5;;
61570;SDS011;47463;49.884;10.010;2022-08-18T07:05:00;14.5;;;12.5;;
61570;SDS011;47463;49.884;10.010;2022-08-18T07:10:00;14.5;;;11.9;;
61570;SDS011;47463;49.884;10.010;2022-08-18T07:15:01;14.5;;;11.9;;
61570;SDS011;47463;49.884;10.010;2022-08-18T07:20:04;13.1;;;10.9;;
61570;SDS011;47463;49.884;10.010;2022-08-18T07:25:00;13.1;;;10.9;;
61570;SDS011;47463;49.884;10.010;2022-08-18T07:30:02;17.4;;;11.7;;
61570;SDS011;47463;49.884;10.010;2022-08-18T07:35:00;17.4;;;11.7;;
61570;SDS011;47463;49.884;10.010;2022-08-18T07:40:02;13.6;;;11.7;;
61570;SDS011;47463;49.884;10.010;2022-08-18T07:45:01;13.6;;;11.7;;
61570;SDS011;47463;49.884;10.010;2022-08-18T07:50:00;15.7;;;13.6;;
61570;SDS011;47463;49.884;10.010;2022-08-18T07:55:03;15.7;;;13.6;;
61570;SDS011;47463;49.884;10.010;2022-08-18T08:00:03;15.1;;;13.5;;
61570;SDS011;47463;49.884;10.010;2022-08-18T08:05:03;15.1;;;13.5;;
61570;SDS011;47463;49.884;10.010;2022-08-18T08:10:02;14.7;;;12.6;;
61570;SDS011;47463;49.884;10.010;2022-08-18T08:15:02;14.7;;;12.6;;
61570;SDS011;47463;49.884;10.010;2022-08-18T08:20:08;14;;;12.5;;
61570;SDS011;47463;49.884;10.010;2022-08-18T08:25:03;14;;;12.5;;
61570;SDS011;47463;49.884;10.010;2022-08-18T08:30:02;16.7;;;13.1;;
61570;SDS011;47463;49.884;10.010;2022-08-18T08:35:02;16.7;;;13.1;;
61570;SDS011;47463;49.884;10.010;2022-08-18T08:40:00;16.1;;;13.8;;
61570;SDS011;47463;49.884;10.010;2022-08-18T08:45:03;16.1;;;13.8;;
61570;SDS011;47463;49.884;10.010;2022-08-18T08:50:01;15.7;;;13.4;;
61570;SDS011;47463;49.884;10.010;2022-08-18T08:55:03;15.7;;;13.4;;
61570;SDS011;47463;49.884;10.010;2022-08-18T09:00:00;16.2;;;12.7;;
61570;SDS011;47463;49.884;10.010;2022-08-18T09:05:02;16.2;;;12.7;;
61570;SDS011;47463;49.884;10.010;2022-08-18T09:10:06;14.6;;;13;;
61570;SDS011;47463;49.884;10.010;2022-08-18T09:15:02;14.6;;;13;;
61570;SDS011;47463;49.884;10.010;2022-08-18T09:20:05;14.3;;;12.6;;
61570;SDS011;47463;49.884;10.010;2022-08-18T09:25:00;14.3;;;12.6;;
61570;SDS011;47463;49.884;10.010;2022-08-18T09:30:00;14.5;;;12.5;;
61570;SDS011;47463;49.884;10.010;2022-08-18T09:35:04;14.5;;;12.5;;
61570;SDS011;47463;49.884;10.010;2022-08-18T09:40:02;17.7;;;14.8;;
61570;SDS011;47463;49.884;10.010;2022-08-18T09:45:03;17.7;;;14.8;;
61570;SDS011;47463;49.884;10.010;2022-08-18T09:50:31;18.1;;;15.7;;
61570;SDS011;47463;49.884;10.010;2022-08-18T09:55:00;18.1;;;15.7;;
61570;SDS011;47463;49.884;10.010;2022-08-18T10:00:25;21.9;;;17.3;;
61570;SDS011;47463;49.884;10.010;2022-08-18T10:05:21;21.9;;;17.3;;
61570;SDS011;47463;49.884;10.010;2022-08-18T10:10:06;18.2;;;15.9;;
61570;SDS011;47463;49.884;10.010;2022-08-18T10:15:05;18.2;;;15.9;;
61570;SDS011;47463;49.884;10.010;2022-08-18T10:20:03;18.4;;;14.6;;
61570;SDS011;47463;49.884;10.010;2022-08-18T10:25:00;18.4;;;14.6;;
61570;SDS011;47463;49.884;10.010;2022-08-18T10:30:00;14.9;;;13.3;;
61570;SDS011;47463;49.884;10.010;2022-08-18T10:35:00;14.9;;;13.3;;
61570;SDS011;47463;49.884;10.010;2022-08-18T10:40:00;15.8;;;13.2;;
61570;SDS011;47463;49.884;10.010;2022-08-18T10:45:02;15.8;;;13.2;;
61570;SDS011;47463;49.884;10.010;2022-08-18T10:50:00;20.6;;;15.6;;
61570;SDS011;47463;49.884;10.010;2022-08-18T10:55:04;20.6;;;15.6;;
61570;SDS011;47463;49.884;10.010;2022-08-18T11:00:02;15.1;;;13.5;;
61570;SDS011;47463;49.884;10.010;2022-08-18T11:05:00;15.1;;;13.5;;
61570;SDS011;47463;49.884;10.010;2022-08-18T11:10:00;17.9;;;14.8;;
61570;SDS011;47463;49.884;10.010;2022-08-18T11:15:04;17.9;;;14.8;;
61570;SDS011;47463;49.884;10.010;2022-08-18T11:20:00;17;;;15.2;;
61570;SDS011;47463;49.884;10.010;2022-08-18T11:25:00;17;;;15.2;;
61570;SDS011;47463;49.884;10.010;2022-08-18T11:30:00;17.7;;;15.4;;
61570;SDS011;47463;49.884;10.010;2022-08-18T11:35:09;17.7;;;15.4;;
61570;SDS011;47463;49.884;10.010;2022-08-18T11:40:00;18.3;;;16.3;;
61570;SDS011;47463;49.884;10.010;2022-08-18T11:45:02;18.3;;;16.3;;
61570;SDS011;47463;49.884;10.010;2022-08-18T11:50:05;17.8;;;14.1;;
61570;SDS011;47463;49.884;10.010;2022-08-18T11:55:00;17.8;;;14.1;;
61570;SDS011;47463;49.884;10.010;2022-08-18T12:00:00;13.9;;;12.6;;
61570;SDS011;47463;49.884;10.010;2022-08-18T12:05:00;13.9;;;12.6;;
61570;SDS011;47463;49.884;10.010;2022-08-18T12:10:12;13.6;;;11.4;;
61570;SDS011;47463;49.884;10.010;2022-08-18T12:15:00;13.6;;;11.4;;
61570;SDS011;47463;49.884;10.010;2022-08-18T12:20:00;11.8;;;10.6;;
61570;SDS011;47463;49.884;10.010;2022-08-18T12:25:00;11.8;;;10.6;;
61570;SDS011;47463;49.884;10.010;2022-08-18T12:30:00;12.5;;;11.2;;
61570;SDS011;47463;49.884;10.010;2022-08-18T12:35:00;12.5;;;11.2;;
61570;SDS011;47463;49.884;10.010;2022-08-18T12:40:00;12.3;;;10.9;;
61570;SDS011;47463;49.884;10.010;2022-08-18T12:45:00;12.3;;;10.9;;
61570;SDS011;47463;49.884;10.010;2022-08-18T12:50:00;13;;;11.7;;
61570;SDS011;47463;49.884;10.010;2022-08-18T12:55:00;13;;;11.7;;
61570;SDS011;47463;49.884;10.010;2022-08-18T13:00:00;14.1;;;12.7;;
61570;SDS011;47463;49.884;10.010;2022-08-18T13:05:00;14.1;;;12.7;;
61570;SDS011;47463;49.884;10.010;2022-08-18T13:10:00;13.1;;;11.9;;
61570;SDS011;47463;49.884;10.010;2022-08-18T13:15:00;13.1;;;11.9;;
61570;SDS011;47463;49.884;10.010;2022-08-18T13:20:01;13.2;;;11.8;;
61570;SDS011;47463;49.884;10.010;2022-08-18T13:25:00;13.2;;;11.8;;
61570;SDS011;47463;49.884;10.010;2022-08-18T13:30:00;15.1;;;11.5;;
61570;SDS011;47463;49.884;10.010;2022-08-18T13:35:00;15.1;;;11.5;;
61570;SDS011;47463;49.884;10.010;2022-08-18T13:40:00;13;;;11;;
61570;SDS011;47463;49.884;10.010;2022-08-18T13:45:00;13;;;11;;
61570;SDS011;47463;49.884;10.010;2022-08-18T13:50:00;13.9;;;12.4;;
61570;SDS011;47463;49.884;10.010;2022-08-18T13:55:00;13.9;;;12.4;;
61570;SDS011;47463;49.884;10.010;2022-08-18T14:00:00;13.2;;;11.9;;
61570;SDS011;47463;49.884;10.010;2022-08-18T14:05:00;13.2;;;11.9;;
61570;SDS011;47463;49.884;10.010;2022-08-18T14:10:00;13.2;;;11.8;;
61570;SDS011;47463;49.884;10.010;2022-08-18T14:15:00;13.2;;;11.8;;
61570;SDS011;47463;49.884;10.010;2022-08-18T14:20:00;14.1;;;12.7;;
61570;SDS011;47463;49.884;10.010;2022-08-18T14:25:00;14.1;;;12.7;;
61570;SDS011;47463;49.884;10.010;2022-08-18T14:30:00;14.1;;;12.7;;
61570;SDS011;47463;49.884;10.010;2022-08-18T14:35:00;14.1;;;12.7;;
61570;SDS011;47463;49.884;10.010;2022-08-18T14:40:00;13.5;;;11.8;;
61570;SDS011;47463;49.884;10.010;2022-08-18T14:45:00;13.5;;;11.8;;
61570;SDS011;47463;49.884;10.010;2022-08-18T14:50:00;13.2;;;11.5;;
61570;SDS011;47463;49.884;10.010;2022-08-18T14:55:00;13.2;;;11.5;;
61570;SDS011;47463;49.884;10.010;2022-08-18T15:00:00;13.1;;;11.8;;
61570;SDS011;47463;49.884;10.010;2022-08-18T15:05:00;13.1;;;11.8;;
61570;SDS011;47463;49.884;10.010;2022-08-18T15:10:00;12;;;10.8;;
61570;SDS011;47463;49.884;10.010;2022-08-18T15:15:01;12;;;10.8;;
61570;SDS011;47463;49.884;10.010;2022-08-18T15:20:00;11.8;;;10.5;;
61570;SDS011;47463;49.884;10.010;2022-08-18T15:25:00;11.8;;;10.5;;
61570;SDS011;47463;49.884;10.010;2022-08-18T15:30:00;12.3;;;11;;
61570;SDS011;47463;49.884;10.010;2022-08-18T15:35:00;12.3;;;11;;
61570;SDS011;47463;49.884;10.010;2022-08-18T15:40:01;13.1;;;11.7;;
61570;SDS011;47463;49.884;10.010;2022-08-18T15:45:00;13.1;;;11.7;;
61570;SDS011;47463;49.884;10.010;2022-08-18T15:50:00;13.5;;;12.2;;
61570;SDS011;47463;49.884;10.010;2022-08-18T15:55:00;13.5;;;12.2;;
61570;SDS011;47463;49.884;10.010;2022-08-18T16:00:00;12.5;;;11.3;;
61570;SDS011;47463;49.884;10.010;2022-08-18T16:05:00;12.5;;;11.3;;
61570;SDS011;47463;49.884;10.010;2022-08-18T16:10:00;13.8;;;12.1;;
61570;SDS011;47463;49.884;10.010;2022-08-18T16:15:00;13.8;;;12.1;;
61570;SDS011;47463;49.884;10.010;2022-08-18T16:20:00;12.1;;;10.9;;
61570;SDS011;47463;49.884;10.010;2022-08-18T16:25:00;12.1;;;10.9;;
61570;SDS011;47463;49.884;10.010;2022-08-18T16:30:00;13.1;;;11.7;;
61570;SDS011;47463;49.884;10.010;2022-08-18T16:35:00;13.1;;;11.7;;
61570;SDS011;47463;49.884;10.010;2022-08-18T16:40:00;12.4;;;11.1;;
61570;SDS011;47463;49.884;10.010;2022-08-18T16:45:00;12.4;;;11.1;;
61570;SDS011;47463;49.884;10.010;2022-08-18T16:50:00;12.6;;;11.3;;
61570;SDS011;47463;49.884;10.010;2022-08-18T16:55:00;12.6;;;11.3;;
61570;SDS011;47463;49.884;10.010;2022-08-18T17:00:01;10.7;;;9.6;;
61570;SDS011;47463;49.884;10.010;2022-08-18T17:05:00;10.7;;;9.6;;
61570;SDS011;47463;49.884;10.010;2022-08-18T17:10:00;11.9;;;10.7;;
61570;SDS011;47463;49.884;10.010;2022-08-18T17:15:00;11.9;;;10.7;;
61570;SDS011;47463;49.884;10.010;2022-08-18T17:20:00;12.6;;;11.4;;
61570;SDS011;47463;49.884;10.010;2022-08-18T17:25:00;12.6;;;11.4;;
61570;SDS011;47463;49.884;10.010;2022-08-18T17:30:00;14.7;;;13;;
61570;SDS011;47463;49.884;10.010;2022-08-18T17:35:00;14.7;;;13;;
61570;SDS011;47463;49.884;10.010;2022-08-18T17:40:07;15.8;;;14.2;;
61570;SDS011;47463;49.884;10.010;2022-08-18T17:45:01;15.8;;;14.2;;
61570;SDS011;47463;49.884;10.010;2022-08-18T17:50:00;16.9;;;15.1;;
61570;SDS011;47463;49.884;10.010;2022-08-18T17:55:00;16.9;;;15.1;;
61570;SDS011;47463;49.884;10.010;2022-08-18T18:00:01;17.5;;;14.5;;
61570;SDS011;47463;49.884;10.010;2022-08-18T18:05:03;17.5;;;14.5;;
61570;SDS011;47463;49.884;10.010;2022-08-18T18:10:00;18.9;;;17;;
61570;SDS011;47463;49.884;10.010;2022-08-18T18:15:00;18.9;;;17;;
61570;SDS011;47463;49.884;10.010;2022-08-18T18:20:10;16.9;;;15.1;;
61570;SDS011;47463;49.884;10.010;2022-08-18T18:25:01;16.9;;;15.1;;
61570;SDS011;47463;49.884;10.010;2022-08-18T18:30:00;20;;;17.4;;
61570;SDS011;47463;49.884;10.010;2022-08-18T18:35:03;20;;;17.4;;
61570;SDS011;47463;49.884;10.010;2022-08-18T18:40:00;25.1;;;18.6;;
61570;SDS011;47463;49.884;10.010;2022-08-18T18:45:00;25.1;;;18.6;;
61570;SDS011;47463;49.884;10.010;2022-08-18T18:50:03;23.2;;;20.1;;
61570;SDS011;47463;49.884;10.010;2022-08-18T18:55:01;23.2;;;20.1;;
61570;SDS011;47463;49.884;10.010;2022-08-18T19:00:03;24.4;;;20.8;;
61570;SDS011;47463;49.884;10.010;2022-08-18T19:05:03;24.4;;;20.8;;
61570;SDS011;47463;49.884;10.010;2022-08-18T19:10:02;25.3;;;22.1;;
61570;SDS011;47463;49.884;10.010;2022-08-18T19:15:02;25.3;;;22.1;;
61570;SDS011;47463;49.884;10.010;2022-08-18T19:20:01;31.3;;;25;;
61570;SDS011;47463;49.884;10.010;2022-08-18T19:25:06;31.3;;;25;;
61570;SDS011;47463;49.884;10.010;2022-08-18T19:30:00;30.7;;;25.4;;
61570;SDS011;47463;49.884;10.010;2022-08-18T19:35:00;30.7;;;25.4;;
61570;SDS011;47463;49.884;10.010;2022-08-18T19:40:02;32.3;;;27.1;;
61570;SDS011;47463;49.884;10.010;2022-08-18T19:45:02;32.3;;;27.1;;
61570;SDS011;47463;49.884;10.010;2022-08-18T19:50:03;34.4;;;28.2;;
61570;SDS011;47463;49.884;10.010;2022-08-18T19:55:04;34.4;;;28.2;;
61570;SDS011;47463;49.884;10.010;2022-08-18T20:00:05;35.7;;;28.6;;
61570;SDS011;47463;49.884;10.010;2022-08-18T20:05:05;35.7;;;28.6;;
61570;SDS011;47463;49.884;10.010;2022-08-18T20:10:05;34.7;;;26.3;;
61570;SDS011;47463;49.884;10.010;2022-08-18T20:15:00;34.7;;;26.3;;
61570;SDS011;47463;49.884;10.010;2022-08-18T20:20:15;32.6;;;26.6;;
61570;SDS011;47463;49.884;10.010;2022-08-18T20:25:00;32.6;;;26.6;;
61570;SDS011;47463;49.884;10.010;2022-08-18T20:30:03;36.1;;;28.3;;
61570;SDS011;47463;49.884;10.010;2022-08-18T20:35:12;36.1;;;28.3;;
61570;SDS011;47463;49.884;10.010;2022-08-18T20:40:00;32.1;;;25.4;;
61570;SDS011;47463;49.884;10.010;2022-08-18T20:45:02;32.1;;;25.4;;
61570;SDS011;47463;49.884;10.010;2022-08-18T20:55:01;32.7;;;24.5;;
61570;SDS011;47463;49.884;10.010;2022-08-18T21:00:03;36;;;27.6;;
61570;SDS011;47463;49.884;10.010;2022-08-18T21:05:00;36;;;27.6;;
61570;SDS011;47463;49.884;10.010;2022-08-18T21:10:01;38.9;;;28.2;;
61570;SDS011;47463;49.884;10.010;2022-08-18T21:15:02;38.9;;;28.2;;
61570;SDS011;47463;49.884;10.010;2022-08-18T21:20:00;37.5;;;26.3;;
61570;SDS011;47463;49.884;10.010;2022-08-18T21:25:00;37.5;;;26.3;;
61570;SDS011;47463;49.884;10.010;2022-08-18T21:30:02;34.6;;;26.7;;
61570;SDS011;47463;49.884;10.010;2022-08-18T21:35:02;34.6;;;26.7;;
61570;SDS011;47463;49.884;10.010;2022-08-18T21:40:00;37.8;;;26.4;;
61570;SDS011;47463;49.884;10.010;2022-08-18T21:45:00;37.8;;;26.4;;
61570;SDS011;47463;49.884;10.010;2022-08-18T21:50:02;36.4;;;26.3;;
61570;SDS011;47463;49.884;10.010;2022-08-18T21:55:00;36.4;;;26.3;;
61570;SDS011;47463;49.884;10.010;2022-08-18T22:00:17;34.7;;;27;;
61570;SDS011;47463;49.884;10.010;2022-08-18T22:05:00;34.7;;;27;;
61570;SDS011;47463;49.884;10.010;2022-08-18T22:10:01;33.2;;;25.1;;
61570;SDS011;47463;49.884;10.010;2022-08-18T22:15:04;33.2;;;25.1;;
61570;SDS011;47463;49.884;10.010;2022-08-18T22:20:33;35.2;;;26.1;;
61570;SDS011;47463;49.884;10.010;2022-08-18T22:25:00;35.2;;;26.1;;
61570;SDS011;47463;49.884;10.010;2022-08-18T22:30:00;35;;;26.4;;
61570;SDS011;47463;49.884;10.010;2022-08-18T22:35:00;35;;;26.4;;
61570;SDS011;47463;49.884;10.010;2022-08-18T22:40:01;34.7;;;26.1;;
61570;SDS011;47463;49.884;10.010;2022-08-18T22:45:00;34.7;;;26.1;;
61570;SDS011;47463;49.884;10.010;2022-08-18T22:50:00;34.1;;;24.9;;
61570;SDS011;47463;49.884;10.010;2022-08-18T22:55:00;34.1;;;24.9;;
61570;SDS011;47463;49.884;10.010;2022-08-18T23:00:04;33.9;;;24.8;;
61570;SDS011;47463;49.884;10.010;2022-08-18T23:05:00;33.9;;;24.8;;
61570;SDS011;47463;49.884;10.010;2022-08-18T23:10:00;34.5;;;25.2;;
61570;SDS011;47463;49.884;10.010;2022-08-18T23:15:00;34.5;;;25.2;;
61570;SDS011;47463;49.884;10.010;2022-08-18T23:20:00;34.5;;;26.2;;
61570;SDS011;47463;49.884;10.010;2022-08-18T23:25:00;34.5;;;26.2;;
61570;SDS011;47463;49.884;10.010;2022-08-18T23:30:00;33.5;;;24.9;;
61570;SDS011;47463;49.884;10.010;2022-08-18T23:35:00;33.5;;;24.9;;
61570;SDS011;47463;49.884;10.010;2022-08-18T23:40:00;34.7;;;25.2;;
61570;SDS011;47463;49.884;10.010;2022-08-18T23:45:00;34.7;;;25.2;;
61570;SDS011;47463;49.884;10.010;2022-08-18T23:50:00;30.8;;;23.1;;
61570;SDS011;47463;49.884;10.010;2022-08-18T23:55:02;30.8;;;23.1;;
